Terminal Aerodrome Forecast
Issued by NWS

Home | Current Version | Previous Version | Text Only | Print | Product List | Glossary On
Versions: 1 2 3 4 5 6 7 8 9 10 11 12 13 14 15 16 17 18 19 20 21 22 23 24 25 26 27 28 29 30
000
FTUS46 KMTR 301739
TAFSFO
TAF
KSFO 301739Z 3018/0124 26015G20KT P6SM FEW016
     FM302000 27024G30KT P6SM FEW015
     FM010500 27015KT P6SM FEW010
     FM011000 27010KT P6SM BKN008
     FM011630 27009KT P6SM FEW012
     FM012100 28014KT P6SM FEW012=

USA.gov is the U.S. government's official web portal to all federal, state and local government web resources and services.